sensor_id;sensor_type;location;lat;lon;timestamp;P1;durP1;ratioP1;P2;durP2;ratioP2
42602;SDS011;28233;55.748;48.752;2023-02-01T00:00:17;50.22;;;20.30;;
42602;SDS011;28233;55.748;48.752;2023-02-01T00:02:20;43.35;;;19.50;;
42602;SDS011;28233;55.748;48.752;2023-02-01T00:04:23;43.78;;;18.02;;
42602;SDS011;28233;55.748;48.752;2023-02-01T00:06:25;42.47;;;19.73;;
42602;SDS011;28233;55.748;48.752;2023-02-01T00:08:28;47.88;;;20.30;;
42602;SDS011;28233;55.748;48.752;2023-02-01T00:10:32;48.25;;;21.15;;
42602;SDS011;28233;55.748;48.752;2023-02-01T00:12:34;48.25;;;20.45;;
42602;SDS011;28233;55.748;48.752;2023-02-01T00:14:37;43.25;;;21.50;;
42602;SDS011;28233;55.748;48.752;2023-02-01T00:16:41;45.95;;;19.27;;
42602;SDS011;28233;55.748;48.752;2023-02-01T00:18:44;39.22;;;18.48;;
42602;SDS011;28233;55.748;48.752;2023-02-01T00:20:48;45.17;;;19.05;;
42602;SDS011;28233;55.748;48.752;2023-02-01T00:22:51;44.00;;;18.38;;
42602;SDS011;28233;55.748;48.752;2023-02-01T00:24:53;52.72;;;19.95;;
42602;SDS011;28233;55.748;48.752;2023-02-01T00:26:56;40.70;;;17.33;;
42602;SDS011;28233;55.748;48.752;2023-02-01T00:28:59;47.42;;;20.20;;
42602;SDS011;28233;55.748;48.752;2023-02-01T00:31:03;44.40;;;19.23;;
42602;SDS011;28233;55.748;48.752;2023-02-01T00:33:06;49.83;;;19.02;;
42602;SDS011;28233;55.748;48.752;2023-02-01T00:35:09;43.63;;;21.42;;
42602;SDS011;28233;55.748;48.752;2023-02-01T00:37:12;43.22;;;20.15;;
42602;SDS011;28233;55.748;48.752;2023-02-01T00:39:15;43.60;;;19.25;;
42602;SDS011;28233;55.748;48.752;2023-02-01T00:41:19;42.58;;;19.80;;
42602;SDS011;28233;55.748;48.752;2023-02-01T00:43:22;45.15;;;17.63;;
42602;SDS011;28233;55.748;48.752;2023-02-01T00:45:25;44.53;;;18.42;;
42602;SDS011;28233;55.748;48.752;2023-02-01T00:47:28;43.08;;;18.52;;
42602;SDS011;28233;55.748;48.752;2023-02-01T00:49:32;41.83;;;18.83;;
42602;SDS011;28233;55.748;48.752;2023-02-01T00:51:35;39.33;;;17.67;;
42602;SDS011;28233;55.748;48.752;2023-02-01T00:53:38;49.20;;;20.42;;
42602;SDS011;28233;55.748;48.752;2023-02-01T00:55:40;48.60;;;19.85;;
42602;SDS011;28233;55.748;48.752;2023-02-01T00:57:47;43.55;;;18.17;;
42602;SDS011;28233;55.748;48.752;2023-02-01T00:59:50;43.60;;;19.05;;
42602;SDS011;28233;55.748;48.752;2023-02-01T01:01:53;43.90;;;20.48;;
42602;SDS011;28233;55.748;48.752;2023-02-01T01:03:56;44.85;;;18.65;;
42602;SDS011;28233;55.748;48.752;2023-02-01T01:06:02;46.03;;;18.38;;
42602;SDS011;28233;55.748;48.752;2023-02-01T01:08:07;44.10;;;18.45;;
42602;SDS011;28233;55.748;48.752;2023-02-01T01:10:10;52.35;;;20.70;;
42602;SDS011;28233;55.748;48.752;2023-02-01T01:12:13;47.85;;;21.35;;
42602;SDS011;28233;55.748;48.752;2023-02-01T01:14:16;55.58;;;22.80;;
42602;SDS011;28233;55.748;48.752;2023-02-01T01:16:19;52.55;;;22.05;;
42602;SDS011;28233;55.748;48.752;2023-02-01T01:18:24;59.95;;;22.45;;
42602;SDS011;28233;55.748;48.752;2023-02-01T01:20:26;49.55;;;21.90;;
42602;SDS011;28233;55.748;48.752;2023-02-01T01:22:29;48.40;;;22.17;;
42602;SDS011;28233;55.748;48.752;2023-02-01T01:24:32;50.17;;;21.63;;
42602;SDS011;28233;55.748;48.752;2023-02-01T01:26:34;63.42;;;23.25;;
42602;SDS011;28233;55.748;48.752;2023-02-01T01:28:37;49.22;;;22.60;;
42602;SDS011;28233;55.748;48.752;2023-02-01T01:30:40;50.13;;;22.70;;
42602;SDS011;28233;55.748;48.752;2023-02-01T01:32:43;49.70;;;23.83;;
42602;SDS011;28233;55.748;48.752;2023-02-01T01:34:46;50.80;;;23.17;;
42602;SDS011;28233;55.748;48.752;2023-02-01T01:36:48;56.38;;;21.92;;
42602;SDS011;28233;55.748;48.752;2023-02-01T01:38:51;59.72;;;24.75;;
42602;SDS011;28233;55.748;48.752;2023-02-01T01:40:54;52.65;;;23.55;;
42602;SDS011;28233;55.748;48.752;2023-02-01T01:42:57;47.50;;;22.92;;
42602;SDS011;28233;55.748;48.752;2023-02-01T01:47:10;52.90;;;23.63;;
42602;SDS011;28233;55.748;48.752;2023-02-01T01:49:14;50.42;;;22.70;;
42602;SDS011;28233;55.748;48.752;2023-02-01T01:51:23;58.17;;;24.27;;
42602;SDS011;28233;55.748;48.752;2023-02-01T01:53:33;52.67;;;20.60;;
42602;SDS011;28233;55.748;48.752;2023-02-01T01:55:43;49.95;;;22.20;;
42602;SDS011;28233;55.748;48.752;2023-02-01T01:57:52;49.78;;;23.63;;
42602;SDS011;28233;55.748;48.752;2023-02-01T02:00:09;49.53;;;21.25;;
42602;SDS011;28233;55.748;48.752;2023-02-01T02:02:13;58.30;;;23.67;;
42602;SDS011;28233;55.748;48.752;2023-02-01T02:04:17;54.13;;;22.08;;
42602;SDS011;28233;55.748;48.752;2023-02-01T02:08:32;50.92;;;22.02;;
42602;SDS011;28233;55.748;48.752;2023-02-01T02:10:36;50.35;;;21.95;;
42602;SDS011;28233;55.748;48.752;2023-02-01T02:12:58;47.30;;;20.58;;
42602;SDS011;28233;55.748;48.752;2023-02-01T02:15:01;57.30;;;22.92;;
42602;SDS011;28233;55.748;48.752;2023-02-01T02:38:09;51.35;;;21.73;;
42602;SDS011;28233;55.748;48.752;2023-02-01T02:52:33;50.10;;;21.80;;
42602;SDS011;28233;55.748;48.752;2023-02-01T02:54:59;48.47;;;20.98;;
42602;SDS011;28233;55.748;48.752;2023-02-01T02:57:06;42.25;;;17.70;;
42602;SDS011;28233;55.748;48.752;2023-02-01T02:59:32;47.35;;;19.17;;
42602;SDS011;28233;55.748;48.752;2023-02-01T03:01:55;40.63;;;18.63;;
42602;SDS011;28233;55.748;48.752;2023-02-01T03:04:17;45.85;;;21.63;;
42602;SDS011;28233;55.748;48.752;2023-02-01T03:06:22;57.15;;;21.30;;
42602;SDS011;28233;55.748;48.752;2023-02-01T03:08:28;57.90;;;20.75;;
42602;SDS011;28233;55.748;48.752;2023-02-01T03:12:44;46.03;;;20.75;;
42602;SDS011;28233;55.748;48.752;2023-02-01T03:15:03;42.90;;;20.42;;
42602;SDS011;28233;55.748;48.752;2023-02-01T03:17:12;51.60;;;21.92;;
42602;SDS011;28233;55.748;48.752;2023-02-01T03:19:19;43.35;;;20.60;;
42602;SDS011;28233;55.748;48.752;2023-02-01T03:24:09;52.90;;;19.80;;
42602;SDS011;28233;55.748;48.752;2023-02-01T03:26:36;44.75;;;19.55;;
42602;SDS011;28233;55.748;48.752;2023-02-01T03:28:50;39.33;;;18.73;;
42602;SDS011;28233;55.748;48.752;2023-02-01T03:31:12;39.25;;;18.45;;
42602;SDS011;28233;55.748;48.752;2023-02-01T03:33:19;44.03;;;19.50;;
42602;SDS011;28233;55.748;48.752;2023-02-01T03:37:47;41.78;;;17.45;;
42602;SDS011;28233;55.748;48.752;2023-02-01T03:40:05;38.80;;;16.58;;
42602;SDS011;28233;55.748;48.752;2023-02-01T03:47:29;36.00;;;17.20;;
42602;SDS011;28233;55.748;48.752;2023-02-01T03:49:55;36.72;;;18.75;;
42602;SDS011;28233;55.748;48.752;2023-02-01T03:52:16;52.15;;;17.15;;
42602;SDS011;28233;55.748;48.752;2023-02-01T03:54:38;37.45;;;15.98;;
42602;SDS011;28233;55.748;48.752;2023-02-01T03:56:44;38.42;;;16.67;;
42602;SDS011;28233;55.748;48.752;2023-02-01T03:58:51;33.67;;;15.95;;
42602;SDS011;28233;55.748;48.752;2023-02-01T04:01:17;36.13;;;16.33;;
42602;SDS011;28233;55.748;48.752;2023-02-01T04:03:19;28.45;;;15.43;;
42602;SDS011;28233;55.748;48.752;2023-02-01T04:05:23;38.80;;;17.17;;
42602;SDS011;28233;55.748;48.752;2023-02-01T04:07:26;35.30;;;16.20;;
42602;SDS011;28233;55.748;48.752;2023-02-01T04:09:29;35.70;;;16.08;;
42602;SDS011;28233;55.748;48.752;2023-02-01T04:11:32;34.90;;;15.85;;
42602;SDS011;28233;55.748;48.752;2023-02-01T04:13:35;39.50;;;17.13;;
42602;SDS011;28233;55.748;48.752;2023-02-01T04:15:37;41.05;;;17.48;;
42602;SDS011;28233;55.748;48.752;2023-02-01T04:17:40;44.45;;;17.88;;
42602;SDS011;28233;55.748;48.752;2023-02-01T04:19:43;41.15;;;17.67;;
42602;SDS011;28233;55.748;48.752;2023-02-01T04:21:45;43.63;;;17.30;;
42602;SDS011;28233;55.748;48.752;2023-02-01T04:23:48;37.53;;;17.15;;
42602;SDS011;28233;55.748;48.752;2023-02-01T04:25:51;40.60;;;17.17;;
42602;SDS011;28233;55.748;48.752;2023-02-01T04:27:53;35.72;;;16.52;;
42602;SDS011;28233;55.748;48.752;2023-02-01T04:29:56;35.58;;;15.18;;
42602;SDS011;28233;55.748;48.752;2023-02-01T04:31:59;36.28;;;15.98;;
42602;SDS011;28233;55.748;48.752;2023-02-01T04:34:02;38.92;;;16.65;;
42602;SDS011;28233;55.748;48.752;2023-02-01T04:36:05;36.08;;;16.63;;
42602;SDS011;28233;55.748;48.752;2023-02-01T04:38:07;36.90;;;14.55;;
42602;SDS011;28233;55.748;48.752;2023-02-01T04:40:10;35.28;;;16.98;;
42602;SDS011;28233;55.748;48.752;2023-02-01T04:42:13;40.63;;;16.13;;
42602;SDS011;28233;55.748;48.752;2023-02-01T04:44:17;34.47;;;16.13;;
42602;SDS011;28233;55.748;48.752;2023-02-01T04:46:21;37.47;;;16.77;;
42602;SDS011;28233;55.748;48.752;2023-02-01T04:48:24;35.97;;;14.35;;
42602;SDS011;28233;55.748;48.752;2023-02-01T04:50:26;37.25;;;14.50;;
42602;SDS011;28233;55.748;48.752;2023-02-01T04:52:29;47.45;;;17.27;;
42602;SDS011;28233;55.748;48.752;2023-02-01T04:54:32;38.47;;;14.57;;
42602;SDS011;28233;55.748;48.752;2023-02-01T04:56:35;35.00;;;15.65;;
42602;SDS011;28233;55.748;48.752;2023-02-01T04:58:37;33.83;;;14.07;;
42602;SDS011;28233;55.748;48.752;2023-02-01T05:00:40;31.15;;;15.65;;
42602;SDS011;28233;55.748;48.752;2023-02-01T05:02:43;31.92;;;14.65;;
42602;SDS011;28233;55.748;48.752;2023-02-01T05:04:45;31.13;;;14.63;;
42602;SDS011;28233;55.748;48.752;2023-02-01T05:06:48;32.22;;;15.57;;
42602;SDS011;28233;55.748;48.752;2023-02-01T05:08:51;33.67;;;15.15;;
42602;SDS011;28233;55.748;48.752;2023-02-01T05:10:54;34.90;;;14.82;;
42602;SDS011;28233;55.748;48.752;2023-02-01T05:12:56;30.13;;;15.20;;
42602;SDS011;28233;55.748;48.752;2023-02-01T05:15:18;29.80;;;14.02;;
42602;SDS011;28233;55.748;48.752;2023-02-01T05:17:21;36.28;;;14.68;;
42602;SDS011;28233;55.748;48.752;2023-02-01T05:19:23;32.30;;;15.32;;
42602;SDS011;28233;55.748;48.752;2023-02-01T05:21:26;30.88;;;12.95;;
42602;SDS011;28233;55.748;48.752;2023-02-01T05:23:29;33.30;;;14.57;;
42602;SDS011;28233;55.748;48.752;2023-02-01T05:25:32;30.75;;;13.35;;
42602;SDS011;28233;55.748;48.752;2023-02-01T05:27:34;28.27;;;12.65;;
42602;SDS011;28233;55.748;48.752;2023-02-01T05:29:37;29.15;;;13.55;;
42602;SDS011;28233;55.748;48.752;2023-02-01T05:31:40;28.83;;;12.60;;
42602;SDS011;28233;55.748;48.752;2023-02-01T05:33:43;24.70;;;11.52;;
42602;SDS011;28233;55.748;48.752;2023-02-01T05:35:46;32.40;;;13.13;;
42602;SDS011;28233;55.748;48.752;2023-02-01T05:37:49;28.30;;;12.93;;
42602;SDS011;28233;55.748;48.752;2023-02-01T05:39:52;24.75;;;12.32;;
42602;SDS011;28233;55.748;48.752;2023-02-01T05:41:55;26.00;;;12.73;;
42602;SDS011;28233;55.748;48.752;2023-02-01T05:43:57;22.83;;;11.07;;
42602;SDS011;28233;55.748;48.752;2023-02-01T05:46:00;24.38;;;11.88;;
42602;SDS011;28233;55.748;48.752;2023-02-01T05:48:03;30.17;;;13.45;;
42602;SDS011;28233;55.748;48.752;2023-02-01T05:50:06;24.85;;;11.48;;
42602;SDS011;28233;55.748;48.752;2023-02-01T05:52:09;26.00;;;11.85;;
42602;SDS011;28233;55.748;48.752;2023-02-01T05:54:12;24.42;;;11.05;;
42602;SDS011;28233;55.748;48.752;2023-02-01T05:56:15;23.90;;;12.15;;
42602;SDS011;28233;55.748;48.752;2023-02-01T05:58:17;29.98;;;11.55;;
42602;SDS011;28233;55.748;48.752;2023-02-01T06:00:20;21.83;;;11.18;;
42602;SDS011;28233;55.748;48.752;2023-02-01T06:02:24;26.02;;;11.65;;
42602;SDS011;28233;55.748;48.752;2023-02-01T06:04:27;23.35;;;12.10;;
42602;SDS011;28233;55.748;48.752;2023-02-01T06:06:29;21.77;;;11.98;;
42602;SDS011;28233;55.748;48.752;2023-02-01T06:08:32;21.60;;;11.57;;
42602;SDS011;28233;55.748;48.752;2023-02-01T06:10:36;25.42;;;10.10;;
42602;SDS011;28233;55.748;48.752;2023-02-01T06:12:38;25.92;;;10.30;;
42602;SDS011;28233;55.748;48.752;2023-02-01T06:14:41;25.50;;;12.13;;
42602;SDS011;28233;55.748;48.752;2023-02-01T06:16:45;22.67;;;12.65;;
42602;SDS011;28233;55.748;48.752;2023-02-01T06:18:48;23.63;;;11.35;;
42602;SDS011;28233;55.748;48.752;2023-02-01T06:20:54;26.77;;;11.88;;
42602;SDS011;28233;55.748;48.752;2023-02-01T06:22:58;23.70;;;10.90;;
42602;SDS011;28233;55.748;48.752;2023-02-01T06:25:01;24.67;;;11.60;;
42602;SDS011;28233;55.748;48.752;2023-02-01T06:27:05;23.55;;;10.88;;
42602;SDS011;28233;55.748;48.752;2023-02-01T06:29:12;26.20;;;11.88;;
42602;SDS011;28233;55.748;48.752;2023-02-01T06:31:15;32.72;;;12.05;;
42602;SDS011;28233;55.748;48.752;2023-02-01T06:33:18;26.42;;;10.88;;
42602;SDS011;28233;55.748;48.752;2023-02-01T06:35:21;24.80;;;11.20;;
42602;SDS011;28233;55.748;48.752;2023-02-01T06:37:23;17.88;;;9.52;;
42602;SDS011;28233;55.748;48.752;2023-02-01T06:39:32;23.55;;;10.27;;
42602;SDS011;28233;55.748;48.752;2023-02-01T06:41:35;22.15;;;9.73;;
42602;SDS011;28233;55.748;48.752;2023-02-01T06:43:38;20.10;;;10.10;;
42602;SDS011;28233;55.748;48.752;2023-02-01T06:45:41;16.98;;;8.90;;
42602;SDS011;28233;55.748;48.752;2023-02-01T06:47:43;19.98;;;10.38;;
42602;SDS011;28233;55.748;48.752;2023-02-01T06:49:46;21.33;;;10.60;;
42602;SDS011;28233;55.748;48.752;2023-02-01T06:51:49;22.92;;;10.20;;
42602;SDS011;28233;55.748;48.752;2023-02-01T06:53:52;23.95;;;8.80;;
42602;SDS011;28233;55.748;48.752;2023-02-01T06:55:57;23.67;;;9.98;;
42602;SDS011;28233;55.748;48.752;2023-02-01T06:58:02;24.55;;;9.32;;
42602;SDS011;28233;55.748;48.752;2023-02-01T07:00:05;22.92;;;9.80;;
42602;SDS011;28233;55.748;48.752;2023-02-01T07:02:11;19.30;;;9.13;;
42602;SDS011;28233;55.748;48.752;2023-02-01T07:04:14;20.42;;;8.73;;
42602;SDS011;28233;55.748;48.752;2023-02-01T07:06:17;20.77;;;9.00;;
42602;SDS011;28233;55.748;48.752;2023-02-01T07:08:20;22.88;;;9.95;;
42602;SDS011;28233;55.748;48.752;2023-02-01T07:10:23;18.98;;;7.82;;
42602;SDS011;28233;55.748;48.752;2023-02-01T07:12:26;19.17;;;9.18;;
42602;SDS011;28233;55.748;48.752;2023-02-01T07:14:29;16.42;;;9.13;;
42602;SDS011;28233;55.748;48.752;2023-02-01T07:16:32;20.30;;;8.65;;
42602;SDS011;28233;55.748;48.752;2023-02-01T07:18:34;18.70;;;8.35;;
42602;SDS011;28233;55.748;48.752;2023-02-01T07:20:37;20.23;;;9.38;;
42602;SDS011;28233;55.748;48.752;2023-02-01T07:22:40;18.08;;;7.45;;
42602;SDS011;28233;55.748;48.752;2023-02-01T07:24:42;18.02;;;8.30;;
42602;SDS011;28233;55.748;48.752;2023-02-01T07:26:45;19.50;;;8.10;;
42602;SDS011;28233;55.748;48.752;2023-02-01T07:28:49;16.52;;;9.20;;
42602;SDS011;28233;55.748;48.752;2023-02-01T07:30:52;17.98;;;9.23;;
42602;SDS011;28233;55.748;48.752;2023-02-01T07:32:55;19.10;;;9.00;;
42602;SDS011;28233;55.748;48.752;2023-02-01T07:35:01;20.75;;;10.25;;
42602;SDS011;28233;55.748;48.752;2023-02-01T07:37:04;25.90;;;10.95;;
42602;SDS011;28233;55.748;48.752;2023-02-01T07:39:07;16.75;;;8.25;;
42602;SDS011;28233;55.748;48.752;2023-02-01T07:41:10;20.13;;;9.00;;
42602;SDS011;28233;55.748;48.752;2023-02-01T07:43:13;18.70;;;9.25;;
42602;SDS011;28233;55.748;48.752;2023-02-01T07:45:16;18.77;;;7.97;;
42602;SDS011;28233;55.748;48.752;2023-02-01T07:47:22;18.00;;;8.45;;
42602;SDS011;28233;55.748;48.752;2023-02-01T07:49:25;19.73;;;7.90;;
42602;SDS011;28233;55.748;48.752;2023-02-01T07:51:28;18.55;;;7.25;;
42602;SDS011;28233;55.748;48.752;2023-02-01T07:53:31;17.58;;;8.75;;
42602;SDS011;28233;55.748;48.752;2023-02-01T07:55:37;19.10;;;8.73;;
42602;SDS011;28233;55.748;48.752;2023-02-01T07:57:40;19.48;;;9.80;;
42602;SDS011;28233;55.748;48.752;2023-02-01T07:59:43;21.90;;;8.90;;
42602;SDS011;28233;55.748;48.752;2023-02-01T08:02:05;17.83;;;6.90;;
42602;SDS011;28233;55.748;48.752;2023-02-01T08:04:09;23.08;;;9.45;;
42602;SDS011;28233;55.748;48.752;2023-02-01T08:06:13;21.92;;;10.05;;
42602;SDS011;28233;55.748;48.752;2023-02-01T08:08:16;19.55;;;9.40;;
42602;SDS011;28233;55.748;48.752;2023-02-01T08:10:19;19.85;;;10.52;;
42602;SDS011;28233;55.748;48.752;2023-02-01T08:12:22;18.65;;;8.38;;
42602;SDS011;28233;55.748;48.752;2023-02-01T08:14:27;16.40;;;9.40;;
42602;SDS011;28233;55.748;48.752;2023-02-01T08:16:30;16.83;;;8.63;;
42602;SDS011;28233;55.748;48.752;2023-02-01T08:18:33;18.75;;;8.45;;
42602;SDS011;28233;55.748;48.752;2023-02-01T08:20:37;20.38;;;9.23;;
42602;SDS011;28233;55.748;48.752;2023-02-01T08:22:43;20.23;;;10.23;;
42602;SDS011;28233;55.748;48.752;2023-02-01T08:24:49;17.02;;;8.82;;
42602;SDS011;28233;55.748;48.752;2023-02-01T08:26:52;20.85;;;10.05;;
42602;SDS011;28233;55.748;48.752;2023-02-01T08:28:56;19.75;;;9.32;;
42602;SDS011;28233;55.748;48.752;2023-02-01T08:31:06;20.05;;;9.80;;
42602;SDS011;28233;55.748;48.752;2023-02-01T08:33:10;19.48;;;9.95;;
42602;SDS011;28233;55.748;48.752;2023-02-01T08:35:13;18.95;;;8.07;;
42602;SDS011;28233;55.748;48.752;2023-02-01T08:37:16;18.13;;;8.90;;
42602;SDS011;28233;55.748;48.752;2023-02-01T08:39:19;19.40;;;10.60;;
42602;SDS011;28233;55.748;48.752;2023-02-01T08:41:23;21.40;;;10.55;;
42602;SDS011;28233;55.748;48.752;2023-02-01T08:43:28;18.23;;;9.70;;
42602;SDS011;28233;55.748;48.752;2023-02-01T08:45:30;20.33;;;9.85;;
42602;SDS011;28233;55.748;48.752;2023-02-01T08:47:34;27.30;;;11.15;;
42602;SDS011;28233;55.748;48.752;2023-02-01T08:49:37;17.42;;;8.95;;
42602;SDS011;28233;55.748;48.752;2023-02-01T08:51:40;18.77;;;8.98;;
42602;SDS011;28233;55.748;48.752;2023-02-01T08:53:42;16.90;;;9.43;;
42602;SDS011;28233;55.748;48.752;2023-02-01T08:55:46;23.08;;;11.40;;
42602;SDS011;28233;55.748;48.752;2023-02-01T08:57:49;21.42;;;9.15;;
42602;SDS011;28233;55.748;48.752;2023-02-01T08:59:51;22.77;;;10.48;;
42602;SDS011;28233;55.748;48.752;2023-02-01T09:01:54;18.65;;;9.35;;
42602;SDS011;28233;55.748;48.752;2023-02-01T09:03:58;23.25;;;9.95;;
42602;SDS011;28233;55.748;48.752;2023-02-01T09:06:05;21.55;;;9.52;;
42602;SDS011;28233;55.748;48.752;2023-02-01T09:08:09;21.10;;;10.20;;
42602;SDS011;28233;55.748;48.752;2023-02-01T09:10:14;19.23;;;9.20;;
42602;SDS011;28233;55.748;48.752;2023-02-01T09:12:22;20.23;;;9.65;;
42602;SDS011;28233;55.748;48.752;2023-02-01T09:14:25;18.98;;;8.82;;
42602;SDS011;28233;55.748;48.752;2023-02-01T09:16:27;20.83;;;10.63;;
42602;SDS011;28233;55.748;48.752;2023-02-01T09:18:30;21.20;;;8.57;;
42602;SDS011;28233;55.748;48.752;2023-02-01T09:20:33;19.98;;;9.85;;
42602;SDS011;28233;55.748;48.752;2023-02-01T09:22:36;23.95;;;11.32;;
42602;SDS011;28233;55.748;48.752;2023-02-01T09:24:38;20.35;;;10.05;;
42602;SDS011;28233;55.748;48.752;2023-02-01T09:26:41;16.60;;;8.90;;
42602;SDS011;28233;55.748;48.752;2023-02-01T09:28:44;22.38;;;9.18;;
42602;SDS011;28233;55.748;48.752;2023-02-01T09:30:47;22.27;;;10.20;;
42602;SDS011;28233;55.748;48.752;2023-02-01T09:32:50;20.92;;;9.77;;
42602;SDS011;28233;55.748;48.752;2023-02-01T09:34:52;20.92;;;9.73;;
42602;SDS011;28233;55.748;48.752;2023-02-01T09:36:55;22.90;;;10.45;;
42602;SDS011;28233;55.748;48.752;2023-02-01T09:38:58;19.10;;;9.77;;
42602;SDS011;28233;55.748;48.752;2023-02-01T09:41:06;22.33;;;10.80;;
42602;SDS011;28233;55.748;48.752;2023-02-01T09:43:27;21.70;;;9.73;;
42602;SDS011;28233;55.748;48.752;2023-02-01T09:48:11;23.77;;;10.63;;
42602;SDS011;28233;55.748;48.752;2023-02-01T09:50:19;21.38;;;10.23;;
42602;SDS011;28233;55.748;48.752;2023-02-01T09:55:00;19.10;;;8.57;;
42602;SDS011;28233;55.748;48.752;2023-02-01T09:57:07;24.92;;;10.95;;
42602;SDS011;28233;55.748;48.752;2023-02-01T09:59:38;23.27;;;10.48;;
42602;SDS011;28233;55.748;48.752;2023-02-01T10:01:43;22.50;;;10.70;;
42602;SDS011;28233;55.748;48.752;2023-02-01T10:03:46;18.33;;;9.02;;
42602;SDS011;28233;55.748;48.752;2023-02-01T10:09:10;20.92;;;10.25;;
42602;SDS011;28233;55.748;48.752;2023-02-01T10:10:52;22.83;;;9.32;;
42602;SDS011;28233;55.748;48.752;2023-02-01T10:17:50;24.13;;;9.52;;
42602;SDS011;28233;55.748;48.752;2023-02-01T10:22:40;20.17;;;8.88;;
42602;SDS011;28233;55.748;48.752;2023-02-01T10:25:21;21.35;;;8.43;;
42602;SDS011;28233;55.748;48.752;2023-02-01T10:27:33;20.23;;;8.82;;
42602;SDS011;28233;55.748;48.752;2023-02-01T10:29:38;17.17;;;8.38;;
42602;SDS011;28233;55.748;48.752;2023-02-01T10:31:43;14.50;;;7.35;;
42602;SDS011;28233;55.748;48.752;2023-02-01T10:33:48;18.27;;;8.77;;
42602;SDS011;28233;55.748;48.752;2023-02-01T10:35:55;22.80;;;9.15;;
42602;SDS011;28233;55.748;48.752;2023-02-01T10:38:07;17.83;;;10.02;;
42602;SDS011;28233;55.748;48.752;2023-02-01T10:40:23;22.05;;;8.55;;
42602;SDS011;28233;55.748;48.752;2023-02-01T10:42:28;20.90;;;9.70;;
42602;SDS011;28233;55.748;48.752;2023-02-01T10:44:31;25.27;;;9.65;;
42602;SDS011;28233;55.748;48.752;2023-02-01T10:46:42;24.42;;;9.73;;
42602;SDS011;28233;55.748;48.752;2023-02-01T10:48:45;21.83;;;11.05;;
42602;SDS011;28233;55.748;48.752;2023-02-01T10:50:54;21.52;;;9.57;;
42602;SDS011;28233;55.748;48.752;2023-02-01T10:57:34;25.35;;;13.23;;
42602;SDS011;28233;55.748;48.752;2023-02-01T10:59:39;22.23;;;10.23;;
42602;SDS011;28233;55.748;48.752;2023-02-01T11:01:48;23.48;;;10.80;;
42602;SDS011;28233;55.748;48.752;2023-02-01T11:06:01;27.77;;;10.38;;
42602;SDS011;28233;55.748;48.752;2023-02-01T11:10:37;20.35;;;8.85;;
42602;SDS011;28233;55.748;48.752;2023-02-01T11:12:45;24.77;;;9.43;;
42602;SDS011;28233;55.748;48.752;2023-02-01T11:15:01;24.63;;;9.48;;
42602;SDS011;28233;55.748;48.752;2023-02-01T11:19:16;17.58;;;9.00;;
42602;SDS011;28233;55.748;48.752;2023-02-01T11:21:20;16.88;;;8.07;;
42602;SDS011;28233;55.748;48.752;2023-02-01T11:23:26;20.38;;;10.43;;
42602;SDS011;28233;55.748;48.752;2023-02-01T11:25:32;20.58;;;10.30;;
42602;SDS011;28233;55.748;48.752;2023-02-01T11:27:38;18.05;;;8.95;;
42602;SDS011;28233;55.748;48.752;2023-02-01T11:29:56;13.90;;;7.70;;
42602;SDS011;28233;55.748;48.752;2023-02-01T11:32:06;21.27;;;8.00;;
42602;SDS011;28233;55.748;48.752;2023-02-01T11:34:15;22.25;;;9.60;;
42602;SDS011;28233;55.748;48.752;2023-02-01T11:36:23;19.07;;;9.23;;
42602;SDS011;28233;55.748;48.752;2023-02-01T11:38:30;21.67;;;8.82;;
42602;SDS011;28233;55.748;48.752;2023-02-01T11:40:35;22.45;;;9.93;;
42602;SDS011;28233;55.748;48.752;2023-02-01T11:42:39;19.70;;;8.63;;
42602;SDS011;28233;55.748;48.752;2023-02-01T11:45:16;18.27;;;8.60;;
42602;SDS011;28233;55.748;48.752;2023-02-01T11:47:25;20.15;;;7.90;;
42602;SDS011;28233;55.748;48.752;2023-02-01T11:49:30;19.30;;;9.23;;
42602;SDS011;28233;55.748;48.752;2023-02-01T11:51:46;19.92;;;8.20;;
42602;SDS011;28233;55.748;48.752;2023-02-01T11:54:24;17.90;;;9.65;;
42602;SDS011;28233;55.748;48.752;2023-02-01T11:58:59;16.73;;;7.55;;
42602;SDS011;28233;55.748;48.752;2023-02-01T12:12:38;16.80;;;7.13;;
42602;SDS011;28233;55.748;48.752;2023-02-01T12:17:48;15.38;;;7.38;;
42602;SDS011;28233;55.748;48.752;2023-02-01T12:20:31;16.30;;;7.63;;
42602;SDS011;28233;55.748;48.752;2023-02-01T12:32:10;14.07;;;7.40;;
42602;SDS011;28233;55.748;48.752;2023-02-01T12:39:39;15.27;;;6.82;;
42602;SDS011;28233;55.748;48.752;2023-02-01T12:42:00;18.80;;;8.35;;
42602;SDS011;28233;55.748;48.752;2023-02-01T12:46:21;20.90;;;7.40;;
42602;SDS011;28233;55.748;48.752;2023-02-01T12:48:33;18.05;;;8.30;;
42602;SDS011;28233;55.748;48.752;2023-02-01T12:50:47;17.25;;;8.10;;
42602;SDS011;28233;55.748;48.752;2023-02-01T12:52:57;18.58;;;7.72;;
42602;SDS011;28233;55.748;48.752;2023-02-01T12:57:56;18.90;;;7.15;;
42602;SDS011;28233;55.748;48.752;2023-02-01T13:02:42;21.50;;;9.23;;
42602;SDS011;28233;55.748;48.752;2023-02-01T13:05:01;17.02;;;8.40;;
42602;SDS011;28233;55.748;48.752;2023-02-01T13:07:14;21.65;;;6.30;;
42602;SDS011;28233;55.748;48.752;2023-02-01T13:09:27;17.85;;;6.93;;
42602;SDS011;28233;55.748;48.752;2023-02-01T13:11:55;25.67;;;8.35;;
42602;SDS011;28233;55.748;48.752;2023-02-01T13:16:28;19.27;;;7.75;;
42602;SDS011;28233;55.748;48.752;2023-02-01T13:18:34;19.00;;;8.25;;
42602;SDS011;28233;55.748;48.752;2023-02-01T13:20:53;19.45;;;7.50;;
42602;SDS011;28233;55.748;48.752;2023-02-01T13:23:24;19.40;;;8.43;;
42602;SDS011;28233;55.748;48.752;2023-02-01T13:25:39;20.50;;;7.70;;
42602;SDS011;28233;55.748;48.752;2023-02-01T13:27:53;17.75;;;7.60;;
42602;SDS011;28233;55.748;48.752;2023-02-01T13:30:00;19.58;;;7.38;;
42602;SDS011;28233;55.748;48.752;2023-02-01T13:39:37;23.40;;;8.45;;
42602;SDS011;28233;55.748;48.752;2023-02-01T13:41:50;19.40;;;8.35;;
42602;SDS011;28233;55.748;48.752;2023-02-01T13:44:01;18.13;;;8.35;;
42602;SDS011;28233;55.748;48.752;2023-02-01T13:46:09;17.95;;;7.78;;
42602;SDS011;28233;55.748;48.752;2023-02-01T13:48:25;19.75;;;7.35;;
42602;SDS011;28233;55.748;48.752;2023-02-01T13:50:32;18.75;;;7.63;;
42602;SDS011;28233;55.748;48.752;2023-02-01T13:52:40;19.48;;;9.23;;
42602;SDS011;28233;55.748;48.752;2023-02-01T13:55:13;20.08;;;7.57;;
42602;SDS011;28233;55.748;48.752;2023-02-01T13:57:31;19.75;;;7.82;;
42602;SDS011;28233;55.748;48.752;2023-02-01T14:01:41;21.35;;;8.95;;
42602;SDS011;28233;55.748;48.752;2023-02-01T14:03:45;23.63;;;9.60;;
42602;SDS011;28233;55.748;48.752;2023-02-01T14:05:55;17.33;;;7.82;;
42602;SDS011;28233;55.748;48.752;2023-02-01T14:10:55;16.58;;;8.88;;
42602;SDS011;28233;55.748;48.752;2023-02-01T14:13:11;24.30;;;9.18;;
42602;SDS011;28233;55.748;48.752;2023-02-01T14:15:31;19.42;;;8.27;;
42602;SDS011;28233;55.748;48.752;2023-02-01T14:17:34;21.80;;;7.82;;
42602;SDS011;28233;55.748;48.752;2023-02-01T14:19:38;18.58;;;8.38;;
42602;SDS011;28233;55.748;48.752;2023-02-01T14:21:54;22.60;;;8.55;;
42602;SDS011;28233;55.748;48.752;2023-02-01T14:26:18;19.30;;;8.35;;